Time;durP1;ratioP1;P1;durP2;ratioP2;P2;SDS_P1;SDS_P2;PMS_P1;PMS_P2;Temp;Humidity;BMP_temperature;BMP_pressure;BME280_temperature;BME280_humidity;BME280_pressure;Samples;Min_cycle;Max_cycle;Signal;HPM_P1;HPM_P2
2022/07/25 00:02:02;;;;;;;0.37;0.37;;;20.40;99.90;;;;;;5015672;28;20619;-80
2022/07/25 00:04:27;;;;;;;0.30;0.30;;;20.30;99.90;;;;;;5016155;28;20267;-79
2022/07/25 00:06:53;;;;;;;0.30;0.30;;;20.30;99.90;;;;;;5015507;28;20283;-80
2022/07/25 00:09:18;;;;;;;0.30;0.30;;;20.30;1.00;;;;;;5018483;28;20215;-78
2022/07/25 00:11:44;;;;;;;0.30;0.30;;;20.30;99.90;;;;;;5022998;28;20172;-78
2022/07/25 00:14:09;;;;;;;0.20;0.20;;;20.40;99.90;;;;;;5022994;28;20184;-78
2022/07/25 00:16:35;;;;;;;0.30;0.30;;;20.20;99.90;;;;;;5021586;28;20187;-79
2022/07/25 00:19:00;;;;;;;0.30;0.30;;;20.20;99.90;;;;;;5020226;28;20677;-78
2022/07/25 00:21:26;;;;;;;0.30;0.30;;;20.20;1.00;;;;;;5019295;28;20187;-78
2022/07/25 00:23:51;;;;;;;0.30;0.30;;;20.20;1.00;;;;;;5016200;28;20200;-79
2022/07/25 00:26:17;;;;;;;0.27;0.27;;;20.20;1.00;;;;;;5014498;28;20256;-79
2022/07/25 00:28:43;;;;;;;0.30;0.30;;;20.10;1.00;;;;;;5014410;28;20179;-80
2022/07/25 00:31:08;;;;;;;0.30;0.30;;;20.10;1.00;;;;;;5015184;28;20192;-79
2022/07/25 00:33:35;;;;;;;0.37;0.37;;;20.10;99.90;;;;;;5015525;28;20231;-80
2022/07/25 00:36:01;;;;;;;0.30;0.30;;;20.00;99.90;;;;;;5015817;28;20177;-80
2022/07/25 00:38:26;;;;;;;0.33;0.33;;;20.00;1.00;;;;;;5015466;28;20208;-80
2022/07/25 00:40:52;;;;;;;0.30;0.30;;;20.00;1.00;;;;;;5014558;28;20181;-80
2022/07/25 00:43:17;;;;;;;0.20;0.20;;;19.90;1.00;;;;;;5014756;28;20224;-79
2022/07/25 00:45:43;;;;;;;0.40;0.40;;;19.90;1.00;;;;;;5015075;28;20296;-79
2022/07/25 00:48:08;;;;;;;0.30;0.30;;;19.80;1.00;;;;;;5014384;28;20262;-79
2022/07/25 00:50:35;;;;;;;0.27;0.27;;;19.80;99.90;;;;;;5013934;28;20181;-79
2022/07/25 00:53:00;;;;;;;0.37;0.37;;;19.70;1.00;;;;;;5014562;28;20197;-79
2022/07/25 00:55:26;;;;;;;0.20;0.20;;;19.70;1.00;;;;;;5018204;28;20185;-79
2022/07/25 00:57:51;;;;;;;0.30;0.30;;;19.70;1.00;;;;;;5017980;28;20177;-79
2022/07/25 01:00:17;;;;;;;0.30;0.30;;;19.60;1.00;;;;;;5017303;28;20274;-79
2022/07/25 01:02:43;;;;;;;0.30;0.30;;;19.60;1.00;;;;;;5017894;28;20370;-79
2022/07/25 01:05:10;;;;;;;0.30;0.30;;;19.60;1.00;;;;;;5018470;28;20220;-79
2022/07/25 01:07:37;;;;;;;0.20;0.20;;;19.60;1.00;;;;;;5054338;23;20223;-78
2022/07/25 01:10:03;;;;;;;0.30;0.30;;;19.60;1.00;;;;;;5054353;28;20212;-78
2022/07/25 01:12:29;;;;;;;0.20;0.20;;;19.50;1.00;;;;;;5049984;28;20587;-78
2022/07/25 01:14:56;;;;;;;0.30;0.30;;;19.50;1.00;;;;;;5049282;28;20194;-77
2022/07/25 01:17:21;;;;;;;0.33;0.33;;;19.40;1.00;;;;;;5047496;28;20172;-80
2022/07/25 01:19:50;;;;;;;0.30;0.30;;;19.50;1.00;;;;;;5045829;28;20219;-78
2022/07/25 01:22:15;;;;;;;0.30;0.30;;;19.30;1.00;;;;;;5043974;28;20554;-78
2022/07/25 01:24:41;;;;;;;0.30;0.30;;;19.30;1.00;;;;;;5039311;28;20180;-77
2022/07/25 01:27:06;;;;;;;0.30;0.30;;;19.30;1.00;;;;;;5040302;28;20222;-78
2022/07/25 01:29:32;;;;;;;0.30;0.30;;;19.30;1.00;;;;;;5041061;28;20486;-77
2022/07/25 01:31:57;;;;;;;0.30;0.30;;;19.20;1.00;;;;;;5042591;28;20179;-78
2022/07/25 01:34:23;;;;;;;0.30;0.30;;;19.20;1.00;;;;;;5041515;28;20291;-78
2022/07/25 01:36:48;;;;;;;0.47;0.47;;;19.20;1.00;;;;;;5041404;28;20191;-78
2022/07/25 01:39:14;;;;;;;0.30;0.30;;;19.20;1.00;;;;;;5039878;28;20234;-77
2022/07/25 01:41:39;;;;;;;0.40;0.40;;;19.10;1.00;;;;;;5039582;28;20676;-79
2022/07/25 01:44:05;;;;;;;0.20;0.20;;;19.10;1.00;;;;;;5039275;28;20765;-78
2022/07/25 01:46:30;;;;;;;0.30;0.30;;;19.10;1.00;;;;;;5040799;28;20172;-78
2022/07/25 01:48:56;;;;;;;0.30;0.30;;;19.10;1.00;;;;;;5037913;28;20238;-78
2022/07/25 01:51:21;;;;;;;0.20;0.20;;;19.10;1.00;;;;;;5037626;28;20233;-77
2022/07/25 01:53:47;;;;;;;0.30;0.30;;;19.10;1.00;;;;;;5037672;28;20290;-78
2022/07/25 01:56:13;;;;;;;0.30;0.30;;;19.10;1.00;;;;;;5038836;28;20241;-78
2022/07/25 01:58:38;;;;;;;0.30;0.30;;;19.10;1.00;;;;;;5037715;28;20218;-77
2022/07/25 02:01:04;;;;;;;0.30;0.30;;;19.10;1.00;;;;;;5037236;28;20175;-77
2022/07/25 02:03:29;;;;;;;0.20;0.20;;;19.00;1.00;;;;;;5037371;28;20204;-77
2022/07/25 02:06:00;;;;;;;0.27;0.27;;;19.00;1.00;;;;;;5037190;28;20180;-78
2022/07/25 02:08:26;;;;;;;0.30;0.30;;;18.90;1.00;;;;;;5037901;28;20627;-78
2022/07/25 02:10:52;;;;;;;0.40;0.40;;;18.80;1.00;;;;;;5037268;28;20657;-77
2022/07/25 02:13:18;;;;;;;0.30;0.30;;;18.80;1.00;;;;;;5037836;28;20223;-78
2022/07/25 02:15:44;;;;;;;0.30;0.30;;;18.90;1.00;;;;;;5038453;28;20199;-78
2022/07/25 02:18:09;;;;;;;0.20;0.20;;;18.90;1.00;;;;;;5039025;28;20202;-79
2022/07/25 02:20:35;;;;;;;0.27;0.27;;;18.80;1.00;;;;;;5038362;28;20180;-78
2022/07/25 02:23:02;;;;;;;0.27;0.27;;;18.80;1.00;;;;;;5036834;28;20203;-79
2022/07/25 02:25:27;;;;;;;0.40;0.40;;;18.80;1.00;;;;;;5038794;28;20652;-78
2022/07/25 02:27:53;;;;;;;0.20;0.20;;;18.70;1.00;;;;;;5039510;28;20211;-78
2022/07/25 02:30:18;;;;;;;0.23;0.23;;;18.70;1.00;;;;;;5028173;28;20427;-78
2022/07/25 02:32:44;;;;;;;0.40;0.40;;;18.60;1.00;;;;;;5036946;28;20247;-78
2022/07/25 02:35:09;;;;;;;0.30;0.30;;;18.60;1.00;;;;;;5038530;28;20596;-78
2022/07/25 02:37:35;;;;;;;0.30;0.30;;;18.60;1.00;;;;;;5037938;28;20176;-78
2022/07/25 02:40:01;;;;;;;0.30;0.30;;;18.50;1.00;;;;;;5037841;28;20208;-78
2022/07/25 02:42:26;;;;;;;0.40;0.40;;;18.50;1.00;;;;;;5038461;28;20211;-79
2022/07/25 02:44:52;;;;;;;0.30;0.30;;;18.60;1.00;;;;;;5041501;28;20172;-78
2022/07/25 02:47:17;;;;;;;0.30;0.30;;;18.40;1.00;;;;;;5041307;28;20168;-78
2022/07/25 02:49:43;;;;;;;0.33;0.33;;;18.40;1.00;;;;;;5039851;28;20179;-77
2022/07/25 02:52:08;;;;;;;0.20;0.20;;;18.40;1.00;;;;;;5039205;28;20196;-78
2022/07/25 02:54:34;;;;;;;0.30;0.30;;;18.60;1.00;;;;;;5039723;28;20673;-78
2022/07/25 02:56:59;;;;;;;0.40;0.40;;;18.40;1.00;;;;;;5039282;28;20176;-79
2022/07/25 02:59:25;;;;;;;0.30;0.30;;;18.40;1.00;;;;;;5040233;28;20235;-78
2022/07/25 03:01:50;;;;;;;0.30;0.30;;;18.30;1.00;;;;;;5039387;28;20180;-80
2022/07/25 03:04:16;;;;;;;0.30;0.30;;;18.30;1.00;;;;;;5038524;28;20206;-79
2022/07/25 03:06:41;;;;;;;0.30;0.30;;;18.30;1.00;;;;;;5038701;28;20598;-78
2022/07/25 03:09:07;;;;;;;0.30;0.30;;;18.20;1.00;;;;;;5039070;28;20199;-79
2022/07/25 03:11:33;;;;;;;0.30;0.30;;;18.20;1.00;;;;;;5039861;28;20180;-79
2022/07/25 03:13:59;;;;;;;0.40;0.40;;;18.20;1.00;;;;;;5041964;28;20204;-79
2022/07/25 03:16:24;;;;;;;0.20;0.20;;;18.20;1.00;;;;;;5040837;28;20176;-79
2022/07/25 03:18:50;;;;;;;0.30;0.30;;;18.20;1.00;;;;;;5039093;28;20243;-79
2022/07/25 03:21:16;;;;;;;0.20;0.20;;;18.10;1.00;;;;;;5043239;28;20180;-78
2022/07/25 03:23:42;;;;;;;0.30;0.30;;;18.10;1.00;;;;;;5049305;28;20207;-78
2022/07/25 03:26:07;;;;;;;0.30;0.30;;;18.10;1.00;;;;;;5051538;28;20187;-78
2022/07/25 03:28:33;;;;;;;0.30;0.30;;;18.10;1.00;;;;;;5051026;28;20175;-78
2022/07/25 03:30:58;;;;;;;0.30;0.30;;;18.10;1.00;;;;;;5049152;28;20697;-78
2022/07/25 03:33:24;;;;;;;0.30;0.30;;;18.10;1.00;;;;;;5039576;28;20203;-78
2022/07/25 03:35:49;;;;;;;0.30;0.30;;;18.00;1.00;;;;;;5039499;28;20255;-78
2022/07/25 03:38:15;;;;;;;0.33;0.33;;;17.90;1.00;;;;;;5040762;28;20232;-78
2022/07/25 03:40:40;;;;;;;0.30;0.30;;;17.90;1.00;;;;;;5038210;28;20194;-78
2022/07/25 03:43:06;;;;;;;0.27;0.27;;;17.90;1.00;;;;;;5038639;28;20200;-78
2022/07/25 03:45:31;;;;;;;0.37;0.37;;;17.90;1.00;;;;;;5038119;28;20610;-78
2022/07/25 03:47:57;;;;;;;0.30;0.30;;;17.90;1.00;;;;;;5038425;28;20521;-77
2022/07/25 03:50:22;;;;;;;0.30;0.30;;;17.90;1.00;;;;;;5036460;28;20190;-78
2022/07/25 03:52:48;;;;;;;0.40;0.40;;;18.00;1.00;;;;;;5035084;28;20722;-78
2022/07/25 03:55:13;;;;;;;0.33;0.33;;;17.90;1.00;;;;;;5034617;28;20172;-78
2022/07/25 03:57:39;;;;;;;0.37;0.37;;;17.90;1.00;;;;;;5033892;28;20176;-78
2022/07/25 04:00:08;;;;;;;0.40;0.40;;;17.80;1.00;;;;;;5032222;28;20275;-78
2022/07/25 04:02:34;;;;;;;0.37;0.37;;;17.80;1.00;;;;;;5032010;28;20196;-79
2022/07/25 04:04:59;;;;;;;0.30;0.30;;;17.80;1.00;;;;;;5032010;28;20182;-79
2022/07/25 04:07:25;;;;;;;0.30;0.30;;;17.70;1.00;;;;;;5031839;28;20215;-78
2022/07/25 04:09:51;;;;;;;0.30;0.30;;;17.70;1.00;;;;;;5031601;28;20180;-77
2022/07/25 04:12:16;;;;;;;0.30;0.30;;;17.70;1.00;;;;;;5031747;28;20736;-78
2022/07/25 04:14:42;;;;;;;0.30;0.30;;;17.70;1.00;;;;;;5031709;28;20186;-77
2022/07/25 04:17:07;;;;;;;0.33;0.33;;;17.70;1.00;;;;;;5030431;28;20187;-77
2022/07/25 04:19:33;;;;;;;0.30;0.30;;;17.80;1.00;;;;;;5031419;28;20210;-78
2022/07/25 04:21:58;;;;;;;0.30;0.30;;;17.90;1.00;;;;;;5032700;28;20168;-78
2022/07/25 04:24:24;;;;;;;0.30;0.30;;;18.00;1.00;;;;;;5032283;28;20586;-78
2022/07/25 04:26:50;;;;;;;0.30;0.30;;;18.10;1.00;;;;;;5032499;28;20187;-78
2022/07/25 04:29:15;;;;;;;0.30;0.30;;;18.20;1.00;;;;;;5033640;28;20176;-78
2022/07/25 04:31:40;;;;;;;0.30;0.30;;;18.20;1.00;;;;;;5035259;28;20221;-77
2022/07/25 04:34:06;;;;;;;0.30;0.30;;;18.30;1.00;;;;;;5035221;28;20179;-77
2022/07/25 04:36:32;;;;;;;0.30;0.30;;;18.30;1.00;;;;;;5035441;28;20522;-77
2022/07/25 04:38:57;;;;;;;0.30;0.30;;;18.30;1.00;;;;;;5034477;28;20199;-76
2022/07/25 04:41:23;;;;;;;0.30;0.30;;;18.30;1.00;;;;;;5035613;28;20663;-77
2022/07/25 04:43:48;;;;;;;0.30;0.30;;;18.30;1.00;;;;;;5033672;28;20621;-77
2022/07/25 04:46:18;;;;;;;0.30;0.30;;;18.40;1.00;;;;;;5031899;28;20194;-78
2022/07/25 04:48:44;;;;;;;0.30;0.30;;;18.40;1.00;;;;;;5035696;28;20577;-77
2022/07/25 04:51:10;;;;;;;0.30;0.30;;;18.50;1.00;;;;;;5034462;28;20237;-77
2022/07/25 04:53:35;;;;;;;0.30;0.30;;;18.50;1.00;;;;;;5034274;28;20446;-77
2022/07/25 04:56:01;;;;;;;0.30;0.30;;;18.60;1.00;;;;;;5035052;28;20172;-78
2022/07/25 04:58:26;;;;;;;0.30;0.30;;;18.50;1.00;;;;;;5035221;28;20663;-77
2022/07/25 05:00:52;;;;;;;0.30;0.30;;;18.50;1.00;;;;;;5034228;28;20180;-76
2022/07/25 05:03:17;;;;;;;0.30;0.30;;;18.60;1.00;;;;;;5034752;28;20199;-77
2022/07/25 05:05:43;;;;;;;0.30;0.30;;;18.80;1.00;;;;;;5034830;28;20318;-77
2022/07/25 05:08:08;;;;;;;0.30;0.30;;;19.00;1.00;;;;;;5034797;28;20283;-77
2022/07/25 05:10:34;;;;;;;0.33;0.33;;;19.20;1.00;;;;;;5034507;28;20188;-77
2022/07/25 05:12:59;;;;;;;0.30;0.30;;;19.40;1.00;;;;;;5034625;28;20731;-77
2022/07/25 05:15:25;;;;;;;0.30;0.30;;;19.60;1.00;;;;;;5033939;28;20222;-77
2022/07/25 05:17:51;;;;;;;0.30;0.30;;;19.80;1.00;;;;;;5034752;28;20179;-78
2022/07/25 05:20:16;;;;;;;0.30;0.30;;;19.80;1.00;;;;;;5033345;28;20242;-78
2022/07/25 05:22:42;;;;;;;0.30;0.30;;;20.00;1.00;;;;;;5030280;28;20208;-78
2022/07/25 05:25:09;;;;;;;0.30;0.30;;;20.10;1.00;;;;;;5034154;28;20322;-77
2022/07/25 05:27:35;;;;;;;0.30;0.30;;;20.20;1.00;;;;;;5033319;28;20511;-78
2022/07/25 05:30:00;;;;;;;0.30;0.30;;;20.30;1.00;;;;;;5033973;28;20367;-78
2022/07/25 05:32:26;;;;;;;0.30;0.30;;;20.40;1.00;;;;;;5033829;28;20680;-77
2022/07/25 05:34:51;;;;;;;0.30;0.30;;;20.50;1.00;;;;;;5034210;28;20549;-77
2022/07/25 05:37:17;;;;;;;0.30;0.30;;;20.50;1.00;;;;;;5033968;28;20570;-77
2022/07/25 05:39:43;;;;;;;0.20;0.20;;;20.70;1.00;;;;;;5032541;28;20223;-77
2022/07/25 05:42:08;;;;;;;0.30;0.30;;;20.80;1.00;;;;;;5033922;28;20206;-77
2022/07/25 05:44:34;;;;;;;0.30;0.30;;;20.80;1.00;;;;;;5034007;28;20211;-77
2022/07/25 05:47:00;;;;;;;0.30;0.30;;;20.70;1.00;;;;;;5034023;28;20176;-77
2022/07/25 05:49:25;;;;;;;0.30;0.30;;;20.60;1.00;;;;;;5033355;28;20673;-78
2022/07/25 05:51:51;;;;;;;0.30;0.30;;;20.60;1.00;;;;;;5033738;28;20176;-77
2022/07/25 05:54:17;;;;;;;0.23;0.23;;;20.70;1.00;;;;;;5034022;28;20176;-77
2022/07/25 05:56:42;;;;;;;0.30;0.30;;;20.70;1.00;;;;;;5034101;28;20175;-77
2022/07/25 05:59:08;;;;;;;0.30;0.30;;;20.90;1.00;;;;;;5034056;28;20207;-78
2022/07/25 06:01:33;;;;;;;0.30;0.30;;;21.30;1.00;;;;;;5037783;28;20187;-78
2022/07/25 06:03:59;;;;;;;0.30;0.30;;;21.70;1.00;;;;;;5048504;28;20188;-78
2022/07/25 06:06:24;;;;;;;0.30;0.30;;;21.90;99.90;;;;;;5045468;28;20176;-82
2022/07/25 06:08:50;;;;;;;0.20;0.20;;;21.80;1.00;;;;;;5044441;28;20196;-78
2022/07/25 06:11:15;;;;;;;0.37;0.37;;;21.70;1.00;;;;;;5048690;28;20211;-82
2022/07/25 06:13:41;;;;;;;0.30;0.30;;;21.50;99.90;;;;;;5039647;28;20195;-77
2022/07/25 06:16:07;;;;;;;0.30;0.30;;;21.70;1.00;;;;;;5036606;28;20628;-78
2022/07/25 06:18:33;;;;;;;0.20;0.20;;;21.80;99.90;;;;;;5034489;28;20176;-79
2022/07/25 06:20:59;;;;;;;0.20;0.20;;;22.20;30.00;;;;;;5036633;28;20175;-79
2022/07/25 06:23:25;;;;;;;0.30;0.30;;;22.40;1.00;;;;;;5036128;28;20238;-78
2022/07/25 06:25:50;;;;;;;0.20;0.20;;;22.50;1.00;;;;;;5036190;28;20179;-81
2022/07/25 06:28:16;;;;;;;0.30;0.30;;;22.50;1.00;;;;;;5035826;28;20179;-80
2022/07/25 06:30:45;;;;;;;0.30;0.30;;;22.70;99.90;;;;;;5034317;28;20724;-80
2022/07/25 06:33:15;;;;;;;0.20;0.20;;;22.80;99.90;;;;;;5037328;28;20202;-79
2022/07/25 06:35:40;;;;;;;0.30;0.30;;;22.80;99.90;;;;;;5040037;28;20214;-79
2022/07/25 06:38:07;;;;;;;0.20;0.20;;;22.90;1.00;;;;;;5041135;28;20555;-80
2022/07/25 06:40:33;;;;;;;0.20;0.20;;;23.20;1.00;;;;;;5031850;28;20207;-80
2022/07/25 06:42:59;;;;;;;0.30;0.30;;;23.30;1.00;;;;;;5045981;28;20188;-80
2022/07/25 06:45:25;;;;;;;0.20;0.20;;;23.20;99.90;;;;;;5040599;28;20180;-81
2022/07/25 06:47:51;;;;;;;0.27;0.27;;;23.20;1.00;;;;;;5039842;28;20187;-81
2022/07/25 06:50:17;;;;;;;0.30;0.30;;;23.30;1.00;;;;;;5044431;28;20183;-82
2022/07/25 06:52:44;;;;;;;0.30;0.30;;;23.30;99.90;;;;;;5038726;28;20206;-78
2022/07/25 06:55:35;;;;;;;0.20;0.20;;;23.30;1.00;;;;;;5040044;28;20190;-78
2022/07/25 06:58:00;;;;;;;0.30;0.30;;;23.50;1.00;;;;;;5048509;28;20176;-79
2022/07/25 07:00:26;;;;;;;0.30;0.30;;;23.70;99.90;;;;;;5036514;28;20298;-79
2022/07/25 07:02:58;;;;;;;0.30;0.30;;;23.90;99.90;;;;;;5030315;28;20197;-79
2022/07/25 07:05:26;;;;;;;0.20;0.20;;;24.10;1.00;;;;;;5025288;28;20653;-79
2022/07/25 07:07:51;;;;;;;0.30;0.30;;;24.40;1.00;;;;;;5051032;22;20244;-76
2022/07/25 07:10:18;;;;;;;0.20;0.20;;;24.70;1.00;;;;;;5057171;28;20249;-77
2022/07/25 07:12:44;;;;;;;0.30;0.30;;;24.80;1.00;;;;;;5045847;28;20206;-77
2022/07/25 07:15:11;;;;;;;0.27;0.27;;;24.90;1.00;;;;;;5034517;28;20175;-77
2022/07/25 07:17:37;;;;;;;0.23;0.23;;;25.00;99.90;;;;;;5034751;28;20184;-78
2022/07/25 07:20:04;;;;;;;0.20;0.20;;;25.30;99.90;;;;;;5033833;28;20215;-77
2022/07/25 07:22:30;;;;;;;0.23;0.23;;;25.40;99.90;;;;;;5033931;28;20202;-77
2022/07/25 07:24:55;;;;;;;0.30;0.30;;;25.60;99.90;;;;;;5032601;28;20176;-76
2022/07/25 07:27:23;;;;;;;0.30;0.30;;;25.60;99.90;;;;;;5032480;28;20259;-75
2022/07/25 07:29:49;;;;;;;0.30;0.30;;;25.80;99.90;;;;;;5031703;28;20193;-76
2022/07/25 07:32:14;;;;;;;0.30;0.30;;;25.90;99.90;;;;;;5032445;28;20198;-75
2022/07/25 07:34:40;;;;;;;0.30;0.30;;;26.20;55.60;;;;;;5031842;28;20188;-75
2022/07/25 07:37:05;;;;;;;0.30;0.30;;;26.40;1.00;;;;;;5031625;28;20263;-76
2022/07/25 07:39:31;;;;;;;0.30;0.30;;;26.60;1.00;;;;;;5031782;28;20199;-75
2022/07/25 07:41:56;;;;;;;0.30;0.30;;;26.70;1.00;;;;;;5032326;28;20176;-76
2022/07/25 07:44:22;;;;;;;0.30;0.30;;;27.10;1.00;;;;;;5032387;28;20550;-77
2022/07/25 07:46:47;;;;;;;0.40;0.40;;;27.40;1.00;;;;;;5032551;28;20178;-76
2022/07/25 07:49:13;;;;;;;0.30;0.30;;;27.50;1.00;;;;;;5032378;28;20648;-77
2022/07/25 07:51:38;;;;;;;0.50;0.50;;;27.70;1.00;;;;;;5032851;28;20310;-77
2022/07/25 07:56:48;;;;;;;0.50;0.50;;;28.60;1.00;;;;;;5032708;28;20678;-76
2022/07/25 07:59:14;;;;;;;0.50;0.50;;;29.30;1.00;;;;;;5031911;28;20299;-76
2022/07/25 08:01:39;;;;;;;0.50;0.50;;;30.00;1.00;;;;;;5032916;28;20542;-77
2022/07/25 08:04:04;;;;;;;0.43;0.43;;;30.60;1.00;;;;;;5032000;28;20175;-76
2022/07/25 08:06:30;;;;;;;0.50;0.50;;;31.10;1.00;;;;;;5033293;28;20172;-77
2022/07/25 08:08:56;;;;;;;0.45;0.45;;;31.30;1.00;;;;;;5030007;28;20234;-77
2022/07/25 08:11:21;;;;;;;0.55;0.55;;;31.40;1.00;;;;;;5031431;28;20226;-77
2022/07/25 08:13:47;;;;;;;0.40;0.40;;;31.80;1.00;;;;;;5032499;28;20187;-76
2022/07/25 08:16:12;;;;;;;0.40;0.40;;;31.80;1.00;;;;;;5032481;28;20711;-77
2022/07/25 08:18:38;;;;;;;0.43;0.43;;;31.90;1.00;;;;;;5032937;28;20249;-77
2022/07/25 08:21:05;;;;;;;0.40;0.40;;;32.20;1.00;;;;;;5032597;28;20245;-76
2022/07/25 08:23:34;;;;;;;0.40;0.40;;;32.30;1.00;;;;;;5034213;28;20687;-77
2022/07/25 08:26:00;;;;;;;0.40;0.40;;;32.30;1.00;;;;;;5031341;28;21463;-77
2022/07/25 08:28:25;;;;;;;0.45;0.45;;;32.40;1.00;;;;;;5031356;28;20266;-77
2022/07/25 08:30:51;;;;;;;0.30;0.30;;;32.40;1.00;;;;;;5030984;28;20214;-76
2022/07/25 08:33:17;;;;;;;0.50;0.50;;;32.70;1.00;;;;;;5032252;28;20653;-78
2022/07/25 08:35:52;;;;;;;0.40;0.40;;;33.10;1.00;;;;;;5032036;28;20314;-76
2022/07/25 08:38:18;;;;;;;0.50;0.50;;;33.00;1.00;;;;;;5032385;28;20694;-77
2022/07/25 08:40:44;;;;;;;0.40;0.40;;;33.10;1.00;;;;;;5030363;28;20228;-76
2022/07/25 08:43:12;;;;;;;0.43;0.43;;;33.30;1.00;;;;;;5031621;28;20253;-77
2022/07/25 08:45:45;;;;;;;0.20;0.20;;;33.40;1.00;;;;;;5031144;28;20264;-75
2022/07/25 08:48:11;;;;;;;0.40;0.40;;;33.60;1.00;;;;;;5031462;28;20175;-76
2022/07/25 08:50:37;;;;;;;0.20;0.20;;;33.90;1.00;;;;;;5030618;28;20262;-77
2022/07/25 08:53:03;;;;;;;0.20;0.20;;;34.10;1.00;;;;;;5030373;28;20220;-75
2022/07/25 08:55:29;;;;;;;0.32;0.32;;;33.90;1.00;;;;;;5031008;28;20176;-76
2022/07/25 08:57:55;;;;;;;0.40;0.40;;;34.30;1.00;;;;;;5031373;28;20177;-76
2022/07/25 09:00:23;;;;;;;0.20;0.20;;;34.70;1.00;;;;;;5030913;28;20217;-76
2022/07/25 09:06:19;;;;;;;0.10;0.10;;;34.60;1.00;;;;;;5029661;28;20264;-76
2022/07/25 09:08:56;;;;;;;0.30;0.30;;;34.80;1.00;;;;;;5031113;28;20370;-76
2022/07/25 09:11:33;;;;;;;0.10;0.10;;;35.00;1.00;;;;;;5030691;28;20235;-76
2022/07/25 09:14:10;;;;;;;0.28;0.28;;;35.10;1.00;;;;;;5031040;28;20210;-76
2022/07/25 09:16:41;;;;;;;0.20;0.20;;;35.20;1.00;;;;;;5036136;28;20178;-77
2022/07/25 09:19:22;;;;;;;0.20;0.20;;;35.00;1.00;;;;;;5036770;28;20754;-75
2022/07/25 09:22:07;;;;;;;0.10;0.10;;;34.70;1.00;;;;;;5034752;28;20174;-76
2022/07/25 09:24:33;;;;;;;0.30;0.30;;;34.70;1.00;;;;;;5037467;28;20175;-77
2022/07/25 09:27:08;;;;;;;0.10;0.10;;;34.60;1.00;;;;;;5030242;28;20184;-76
2022/07/25 09:29:33;;;;;;;0.38;0.38;;;34.50;1.00;;;;;;5015833;28;20259;-76
2022/07/25 09:32:01;;;;;;;0.40;0.40;;;34.70;1.00;;;;;;5015279;28;20182;-76
2022/07/25 09:34:38;;;;;;;0.25;0.25;;;35.20;1.00;;;;;;5014808;28;20172;-76
2022/07/25 09:37:06;;;;;;;0.20;0.20;;;35.60;1.00;;;;;;5014345;28;20602;-76
2022/07/25 09:39:49;;;;;;;0.20;0.20;;;36.00;1.00;;;;;;5014030;28;20233;-76
2022/07/25 09:42:25;;;;;;;0.10;0.10;;;36.10;1.00;;;;;;5014108;28;20624;-75
2022/07/25 09:45:10;;;;;;;0.20;0.20;;;36.50;1.00;;;;;;5014517;28;20260;-76
2022/07/25 09:47:38;;;;;;;0.10;0.10;;;37.10;1.00;;;;;;5014579;28;20178;-76
2022/07/25 09:50:05;;;;;;;0.00;0.00;;;37.30;1.00;;;;;;5013814;28;20180;-76
2022/07/25 09:52:32;;;;;;;0.10;0.10;;;37.50;1.00;;;;;;5014235;28;20206;-76
2022/07/25 09:55:01;;;;;;;0.20;0.20;;;37.70;1.00;;;;;;5014404;28;20195;-75
2022/07/25 09:57:27;;;;;;;0.05;0.05;;;37.90;1.00;;;;;;5014283;28;20177;-75
2022/07/25 09:59:54;;;;;;;0.05;0.05;;;38.00;1.00;;;;;;5013350;28;20705;-76
2022/07/25 10:02:40;;;;;;;0.20;0.20;;;38.00;1.00;;;;;;5014151;28;20208;-75
2022/07/25 10:05:14;;;;;;;0.20;0.20;;;38.00;1.00;;;;;;5013842;28;20543;-76
2022/07/25 10:07:44;;;;;;;0.10;0.10;;;37.80;1.00;;;;;;5013744;28;20195;-76
2022/07/25 10:10:25;;;;;;;0.10;0.10;;;37.70;1.00;;;;;;5013065;28;20661;-76
2022/07/25 10:13:05;;;;;;;0.10;0.10;;;37.60;1.00;;;;;;5013706;28;20223;-76
2022/07/25 10:15:51;;;;;;;0.08;0.08;;;37.90;1.00;;;;;;5014037;28;20176;-74
2022/07/25 10:18:21;;;;;;;0.10;0.10;;;38.30;1.00;;;;;;5013515;28;20181;-76
2022/07/25 10:20:48;;;;;;;0.10;0.10;;;38.50;1.00;;;;;;5012553;28;20682;-75
2022/07/25 10:23:24;;;;;;;0.10;0.10;;;38.60;1.00;;;;;;5028465;28;20198;-76
2022/07/25 10:26:07;;;;;;;0.10;0.10;;;38.50;1.00;;;;;;5013588;28;20199;-76
2022/07/25 10:28:48;;;;;;;0.10;0.10;;;37.40;1.00;;;;;;5013562;28;20168;-77
2022/07/25 10:31:15;;;;;;;0.10;0.10;;;36.90;1.00;;;;;;5012909;28;20253;-75
2022/07/25 10:33:41;;;;;;;0.13;0.13;;;37.30;1.00;;;;;;5033081;28;20198;-76
2022/07/25 10:36:07;;;;;;;0.10;0.10;;;37.50;1.00;;;;;;5032902;28;20677;-76
2022/07/25 10:38:33;;;;;;;0.10;0.10;;;37.70;1.00;;;;;;5034115;28;20203;-76
2022/07/25 10:41:03;;;;;;;0.00;0.00;;;37.50;1.00;;;;;;5033183;28;20176;-77
2022/07/25 10:43:35;;;;;;;0.03;0.03;;;37.00;1.00;;;;;;5032936;28;20200;-76
2022/07/25 10:46:00;;;;;;;0.10;0.10;;;36.80;1.00;;;;;;5031941;28;20175;-77
2022/07/25 10:48:28;;;;;;;0.10;0.10;;;37.20;1.00;;;;;;5032822;28;20254;-76
2022/07/25 10:51:07;;;;;;;0.00;0.00;;;37.60;1.00;;;;;;5037089;28;20172;-75
2022/07/25 10:53:37;;;;;;;0.10;0.10;;;38.00;1.00;;;;;;5041534;28;20199;-75
2022/07/25 10:56:03;;;;;;;0.10;0.10;;;38.20;1.00;;;;;;5049345;28;20171;-76
2022/07/25 10:59:00;;;;;;;0.05;0.05;;;38.40;1.00;;;;;;5053765;28;20189;-76
2022/07/25 11:01:36;;;;;;;0.08;0.08;;;38.70;1.00;;;;;;5027482;28;20231;-75
2022/07/25 11:04:04;;;;;;;0.20;0.20;;;38.90;1.00;;;;;;5035831;28;20199;-76
2022/07/25 11:06:37;;;;;;;0.10;0.10;;;39.00;1.00;;;;;;5036869;28;20548;-76
2022/07/25 11:09:24;;;;;;;0.10;0.10;;;39.20;1.00;;;;;;5047524;28;20187;-76
2022/07/25 11:11:52;;;;;;;0.10;0.10;;;39.40;1.00;;;;;;5036593;28;20176;-76
2022/07/25 11:14:36;;;;;;;0.10;0.10;;;39.50;1.00;;;;;;5051617;28;20321;-76
2022/07/25 11:17:19;;;;;;;0.10;0.10;;;39.20;1.00;;;;;;5041618;28;20258;-76
2022/07/25 11:20:00;;;;;;;0.05;0.05;;;38.70;1.00;;;;;;5040235;28;20211;-75
2022/07/25 11:22:26;;;;;;;0.13;0.13;;;38.90;1.00;;;;;;5049656;28;20234;-76
2022/07/25 11:24:52;;;;;;;0.10;0.10;;;39.00;1.00;;;;;;5038928;28;20184;-75
2022/07/25 11:27:26;;;;;;;0.10;0.10;;;39.30;1.00;;;;;;5043582;28;20172;-76
2022/07/25 11:29:52;;;;;;;0.20;0.20;;;39.60;1.00;;;;;;5045474;28;20314;-76
2022/07/25 11:32:18;;;;;;;0.28;0.28;;;39.60;1.00;;;;;;5035197;28;20198;-76
2022/07/25 11:34:50;;;;;;;0.10;0.10;;;39.70;1.00;;;;;;5047465;28;20168;-76
2022/07/25 11:37:17;;;;;;;0.10;0.10;;;39.90;1.00;;;;;;5041833;28;20239;-76
2022/07/25 11:39:45;;;;;;;0.10;0.10;;;39.00;1.00;;;;;;5039674;28;20289;-76
2022/07/25 11:42:16;;;;;;;0.20;0.20;;;38.60;1.00;;;;;;5049087;28;20202;-76
2022/07/25 11:44:50;;;;;;;0.10;0.10;;;38.40;1.00;;;;;;5021093;28;20174;-76
2022/07/25 11:47:30;;;;;;;0.10;0.10;;;38.30;1.00;;;;;;5044146;28;20194;-76
2022/07/25 11:50:01;;;;;;;0.00;0.00;;;38.30;1.00;;;;;;5046110;28;20258;-76
2022/07/25 11:52:30;;;;;;;0.00;0.00;;;38.60;1.00;;;;;;5035566;28;20194;-76
2022/07/25 11:55:00;;;;;;;0.00;0.00;;;39.00;1.00;;;;;;5046509;28;20553;-75
2022/07/25 11:57:30;;;;;;;0.10;0.10;;;39.00;1.00;;;;;;5033758;28;20176;-75
2022/07/25 11:59:59;;;;;;;0.25;0.25;;;38.60;1.00;;;;;;5045242;28;20304;-78
2022/07/25 12:02:29;;;;;;;0.10;0.10;;;38.50;1.00;;;;;;5050136;28;20199;-76
2022/07/25 12:05:00;;;;;;;0.00;0.00;;;38.80;1.00;;;;;;5038815;28;20531;-76
2022/07/25 12:07:41;;;;;;;0.20;0.20;;;39.10;1.00;;;;;;5041174;28;20184;-76
2022/07/25 12:10:09;;;;;;;0.00;0.00;;;39.40;1.00;;;;;;5048212;28;20266;-77
2022/07/25 12:12:47;;;;;;;0.13;0.13;;;39.80;1.00;;;;;;5033381;28;20193;-76
2022/07/25 12:15:14;;;;;;;0.20;0.20;;;39.80;1.00;;;;;;5031367;28;20173;-76
2022/07/25 12:17:42;;;;;;;0.10;0.10;;;39.80;1.00;;;;;;5031743;28;20173;-76
2022/07/25 12:20:32;;;;;;;0.10;0.10;;;39.30;1.00;;;;;;5033100;28;20223;-78
2022/07/25 12:23:01;;;;;;;0.10;0.10;;;38.70;1.00;;;;;;5023994;28;20205;-77
2022/07/25 12:25:28;;;;;;;0.10;0.10;;;38.90;1.00;;;;;;5035129;28;20629;-78
2022/07/25 12:27:55;;;;;;;0.10;0.10;;;39.50;1.00;;;;;;5035236;28;20172;-77
2022/07/25 12:30:20;;;;;;;0.10;0.10;;;39.50;1.00;;;;;;5035238;28;20203;-77
2022/07/25 12:32:46;;;;;;;0.10;0.10;;;38.90;1.00;;;;;;5036905;28;20203;-76
2022/07/25 12:35:13;;;;;;;0.10;0.10;;;38.70;1.00;;;;;;5037721;28;20183;-77
2022/07/25 12:37:40;;;;;;;0.20;0.20;;;38.50;1.00;;;;;;5036620;28;20184;-77
2022/07/25 12:40:06;;;;;;;0.10;0.10;;;38.10;1.00;;;;;;5035320;28;20275;-77
2022/07/25 12:42:31;;;;;;;0.00;0.00;;;38.40;1.00;;;;;;5036277;28;20198;-78
2022/07/25 12:44:57;;;;;;;0.10;0.10;;;38.70;1.00;;;;;;5035927;28;20186;-77
2022/07/25 12:47:23;;;;;;;0.15;0.15;;;39.40;1.00;;;;;;5033925;28;20195;-76
2022/07/25 12:49:49;;;;;;;0.10;0.10;;;39.80;1.00;;;;;;5034521;28;20181;-77
2022/07/25 12:52:15;;;;;;;0.13;0.13;;;39.90;1.00;;;;;;5037508;28;20208;-76
2022/07/25 12:54:40;;;;;;;0.10;0.10;;;39.80;1.00;;;;;;5038388;28;20343;-77
2022/07/25 12:57:06;;;;;;;0.10;0.10;;;39.60;1.00;;;;;;5038264;28;20169;-77
2022/07/25 12:59:32;;;;;;;0.10;0.10;;;39.70;1.00;;;;;;5038513;28;20277;-77
2022/07/25 13:01:58;;;;;;;0.20;0.20;;;39.80;1.00;;;;;;5043042;28;20169;-76
2022/07/25 13:04:25;;;;;;;0.20;0.20;;;39.70;1.00;;;;;;5046324;28;20192;-76